createdAt,value
2023-08-15T00:00:09.415Z,100455.88
2023-08-15T00:02:37.892Z,100429.31
2023-08-15T00:05:09.250Z,100428.88
2023-08-15T00:07:37.717Z,100442.09
2023-08-15T00:10:06.791Z,100433.25
2023-08-15T00:12:35.324Z,100454.22
2023-08-15T00:15:04.219Z,100501.16
2023-08-15T00:17:32.979Z,100536.81
2023-08-15T00:20:01.366Z,100566.59
2023-08-15T00:22:31.124Z,100587.72
2023-08-15T00:24:59.679Z,100588.91
2023-08-15T00:27:28.063Z,100590.47
2023-08-15T00:29:56.455Z,100594.75
2023-08-15T00:32:24.830Z,100586.19
2023-08-15T00:34:53.432Z,100591.28
2023-08-15T00:37:22.059Z,100584.63
2023-08-15T00:39:52.132Z,100583.09
2023-08-15T00:42:20.630Z,100590.13
2023-08-15T00:44:49.187Z,100591.75
2023-08-15T00:47:17.833Z,100575.34
2023-08-15T00:49:46.953Z,100570.25
2023-08-15T00:52:17.470Z,100571.41
2023-08-15T00:54:49.127Z,100578.47
2023-08-15T00:57:20.542Z,100566.75
2023-08-15T00:59:49.432Z,100579.69
2023-08-15T01:02:17.956Z,100570.28
2023-08-15T01:04:46.885Z,100576.13
2023-08-15T01:07:19.334Z,100564.41
2023-08-15T01:09:48.091Z,100575.38
2023-08-15T01:12:27.803Z,100574.22
2023-08-15T01:15:02.926Z,100566.81
2023-08-15T01:17:37.895Z,100578.16
2023-08-15T01:20:09.934Z,100569.56
2023-08-15T01:22:43.448Z,100557.44
2023-08-15T01:25:13.318Z,100545.31
2023-08-15T01:27:41.692Z,100565.66
2023-08-15T01:30:11.020Z,100553.94
2023-08-15T01:32:48.086Z,100547.28
2023-08-15T01:35:21.967Z,100535.56
2023-08-15T01:37:56.841Z,100543.41
2023-08-15T01:40:29.635Z,100513.28
2023-08-15T01:42:59.814Z,100506.59
2023-08-15T01:45:29.351Z,100512.50
2023-08-15T01:47:58.077Z,100511.72
2023-08-15T01:50:26.724Z,100517.97
2023-08-15T01:52:55.469Z,100519.53
2023-08-15T01:55:23.803Z,100525.00
2023-08-15T01:57:53.650Z,100525.41
2023-08-15T02:00:22.309Z,100534.03
2023-08-15T02:02:51.086Z,100532.44
2023-08-15T02:05:20.970Z,100532.44
2023-08-15T02:07:49.792Z,100537.94
2023-08-15T02:10:18.322Z,100523.44
2023-08-15T02:12:46.739Z,100544.56
2023-08-15T02:15:16.601Z,100549.66
2023-08-15T02:17:44.978Z,100552.78
2023-08-15T02:20:14.184Z,100550.03
2023-08-15T02:22:42.726Z,100540.25
2023-08-15T02:25:11.330Z,100514.06
2023-08-15T02:27:39.796Z,100512.47
2023-08-15T02:30:09.643Z,100503.50
2023-08-15T02:32:39.499Z,100507.03
2023-08-15T02:35:09.119Z,100506.63
2023-08-15T02:37:37.441Z,100512.91
2023-08-15T02:40:07.532Z,100508.22
2023-08-15T02:42:35.894Z,100510.97
2023-08-15T02:45:04.552Z,100512.53
2023-08-15T02:47:33.327Z,100509.78
2023-08-15T02:50:03.135Z,100514.88
2023-08-15T02:52:31.723Z,100513.72
2023-08-15T02:55:00.208Z,100518.03
2023-08-15T02:57:28.658Z,100521.56
2023-08-15T02:59:56.986Z,100529.38
2023-08-15T03:02:25.897Z,100536.78
2023-08-15T03:04:54.446Z,100517.63
2023-08-15T03:07:25.322Z,100496.50
2023-08-15T03:09:54.132Z,100487.94
2023-08-15T03:12:22.495Z,100493.41
2023-08-15T03:14:50.907Z,100496.94
2023-08-15T03:17:20.762Z,100484.81
2023-08-15T03:19:49.330Z,100478.19
2023-08-15T03:22:17.695Z,100477.38
2023-08-15T03:24:47.777Z,100474.66
2023-08-15T03:27:16.276Z,100492.66
2023-08-15T03:29:44.678Z,100488.31
2023-08-15T03:32:13.226Z,100507.09
2023-08-15T03:34:41.826Z,100502.41
2023-08-15T03:37:10.225Z,100507.09
2023-08-15T03:39:38.580Z,100508.66
2023-08-15T03:42:08.471Z,100504.72
2023-08-15T03:44:37.168Z,100498.47
2023-08-15T03:47:05.760Z,100501.19
2023-08-15T03:49:34.255Z,100509.78
2023-08-15T03:52:02.796Z,100527.38
2023-08-15T03:54:31.172Z,100526.59
2023-08-15T03:56:59.667Z,100532.06
2023-08-15T03:59:29.440Z,100555.53
2023-08-15T04:01:59.274Z,100529.69
2023-08-15T04:04:27.761Z,100515.22
2023-08-15T04:06:56.185Z,100455.75
2023-08-15T04:09:24.561Z,100444.00
2023-08-15T04:11:52.967Z,100487.84
2023-08-15T04:14:21.463Z,100455.38
2023-08-15T04:16:51.269Z,100464.38
2023-08-15T04:19:19.553Z,100473.75
2023-08-15T04:21:47.985Z,100472.97
2023-08-15T04:24:16.356Z,100483.47
2023-08-15T04:26:43.661Z,100504.63
2023-08-15T04:29:12.214Z,100504.19
2023-08-15T04:31:41.078Z,100528.81
2023-08-15T04:34:10.869Z,100525.63
2023-08-15T04:36:44.997Z,100523.59
2023-08-15T04:39:13.343Z,100555.53
2023-08-15T04:41:43.969Z,100562.59
2023-08-15T04:44:13.142Z,100586.78
2023-08-15T04:46:41.490Z,100594.91
2023-08-15T04:49:11.325Z,100606.88
2023-08-15T04:51:39.876Z,100615.59
2023-08-15T04:54:08.431Z,100618.66
2023-08-15T04:56:36.802Z,100621.56
2023-08-15T04:59:05.261Z,100609.63
2023-08-15T05:01:34.868Z,100596.53
2023-08-15T05:04:03.289Z,100604.84
2023-08-15T05:06:33.490Z,100584.50
2023-08-15T05:09:01.874Z,100572.97
2023-08-15T05:11:30.375Z,100555.50
2023-08-15T05:14:01.689Z,100553.16
2023-08-15T05:16:31.240Z,100556.56
2023-08-15T05:18:59.609Z,100541.78
2023-08-15T05:21:28.618Z,100548.00
2023-08-15T05:23:58.603Z,100548.63
2023-08-15T05:26:26.995Z,100554.19
2023-08-15T05:28:55.390Z,100541.34
2023-08-15T05:31:24.005Z,100543.53
2023-08-15T05:33:52.455Z,100534.41
2023-08-15T05:36:20.993Z,100549.00
2023-08-15T05:38:49.478Z,100543.59
2023-08-15T05:41:19.370Z,100553.16
2023-08-15T05:43:47.769Z,100560.59
2023-08-15T05:46:16.132Z,100565.66
2023-08-15T05:48:44.567Z,100557.53
2023-08-15T05:51:13.020Z,100595.13
2023-08-15T05:53:41.469Z,100572.16
2023-08-15T05:56:09.776Z,100572.63
2023-08-15T05:58:42.205Z,100582.16
2023-08-15T06:01:10.667Z,100568.56
2023-08-15T06:03:51.798Z,100567.53
2023-08-15T06:06:21.311Z,100565.88
2023-08-15T06:08:50.060Z,100560.22
2023-08-15T06:11:18.523Z,100577.72
2023-08-15T06:13:48.526Z,100584.88
2023-08-15T06:16:17.068Z,100588.69
2023-08-15T06:18:45.439Z,100584.88
2023-08-15T06:21:13.851Z,100598.97
2023-08-15T06:23:42.412Z,100598.72
2023-08-15T06:26:10.800Z,100609.66
2023-08-15T06:28:39.186Z,100615.88
2023-08-15T06:31:08.971Z,100627.88
2023-08-15T06:33:37.418Z,100628.81
2023-08-15T06:36:06.063Z,100646.72
2023-08-15T06:38:34.485Z,100657.03
2023-08-15T06:41:03.942Z,100644.88
2023-08-15T06:43:32.287Z,100618.91
2023-08-15T06:46:00.767Z,100591.06
2023-08-15T06:48:30.532Z,100563.16
2023-08-15T06:50:58.984Z,100450.72
2023-08-15T06:53:27.829Z,100347.19
2023-08-15T06:55:56.167Z,100358.16
2023-08-15T06:58:24.632Z,100361.22
2023-08-15T07:00:53.389Z,100355.59
2023-08-15T07:03:23.902Z,100347.28
2023-08-15T07:05:54.516Z,100371.66
2023-08-15T07:08:22.950Z,100410.53
2023-08-15T07:10:56.665Z,100419.59
2023-08-15T07:13:25.376Z,100422.31
2023-08-15T07:15:57.376Z,100415.59
2023-08-15T07:18:26.328Z,100453.00
2023-08-15T07:20:56.133Z,100437.28
2023-08-15T07:23:24.607Z,100463.84
2023-08-15T07:25:53.146Z,100471.03
2023-08-15T07:28:21.722Z,100512.72
2023-08-15T07:30:50.421Z,100502.47
2023-08-15T07:33:19.018Z,100521.00
2023-08-15T07:35:47.459Z,100505.81
2023-08-15T07:38:17.290Z,100513.63
2023-08-15T07:40:48.329Z,100494.25
2023-08-15T07:43:19.907Z,100487.31
2023-08-15T07:45:48.339Z,100489.91
2023-08-15T07:48:16.703Z,100499.22
2023-08-15T07:50:45.381Z,100512.16
2023-08-15T07:53:14.113Z,100525.09
2023-08-15T07:55:44.135Z,100563.34
2023-08-15T07:58:12.807Z,100557.97
2023-08-15T08:00:41.374Z,100566.84
2023-08-15T08:03:09.907Z,100557.56
2023-08-15T08:05:38.384Z,100553.06
2023-08-15T08:08:07.254Z,100526.28
2023-08-15T08:10:37.770Z,100543.22
2023-08-15T08:13:07.977Z,100570.25
2023-08-15T08:15:36.447Z,100565.88
2023-08-15T08:18:05.239Z,100563.13
2023-08-15T08:20:33.653Z,100545.31
2023-08-15T08:23:02.051Z,100559.09
2023-08-15T08:25:30.583Z,100545.44
2023-08-15T08:27:59.091Z,100523.09
2023-08-15T08:30:30.112Z,100511.78
2023-08-15T08:32:59.809Z,100495.78
2023-08-15T08:35:28.350Z,100446.66
2023-08-15T08:37:58.180Z,100474.88
2023-08-15T08:40:26.712Z,100464.72
2023-08-15T08:42:55.113Z,100499.63
2023-08-15T08:45:28.063Z,100475.66
2023-08-15T08:47:58.554Z,100433.31
2023-08-15T08:50:28.872Z,100451.75
2023-08-15T08:52:57.553Z,100454.00
2023-08-15T08:55:26.779Z,100479.94
2023-08-15T08:57:55.947Z,100480.22
2023-08-15T09:00:30.061Z,100471.78
2023-08-15T09:03:00.817Z,100493.63
2023-08-15T09:05:30.073Z,100502.75
2023-08-15T09:07:59.329Z,100471.22
2023-08-15T09:10:27.798Z,100484.59
2023-08-15T09:13:00.912Z,100506.00
2023-08-15T09:15:31.455Z,100506.31
2023-08-15T09:18:06.294Z,100496.56
2023-08-15T09:20:35.943Z,100489.13
2023-08-15T09:23:06.117Z,100499.47
2023-08-15T09:25:38.310Z,100482.25
2023-08-15T09:28:08.289Z,100470.69
2023-08-15T09:30:36.794Z,100470.13
2023-08-15T09:33:07.555Z,100499.66
2023-08-15T09:35:42.668Z,100461.28
2023-08-15T09:38:17.746Z,100485.78
2023-08-15T09:40:49.728Z,100480.22
2023-08-15T09:43:18.331Z,100477.28
2023-08-15T09:45:46.730Z,100468.50
2023-08-15T09:48:18.196Z,100489.56
2023-08-15T09:50:49.998Z,100506.22
2023-08-15T09:53:18.479Z,100500.28
2023-08-15T09:55:46.889Z,100493.22
2023-08-15T09:58:15.413Z,100485.19
2023-08-15T10:00:44.606Z,100480.31
2023-08-15T10:03:21.039Z,100508.38
2023-08-15T10:05:56.278Z,100492.00
2023-08-15T10:08:25.805Z,100501.75
2023-08-15T10:10:55.702Z,100504.22
2023-08-15T10:13:27.385Z,100488.22
2023-08-15T10:15:57.217Z,100500.22
2023-08-15T10:18:27.682Z,100501.91
2023-08-15T10:20:57.509Z,100492.28
2023-08-15T10:23:32.191Z,100468.91
2023-08-15T10:26:01.952Z,100468.47
2023-08-15T10:28:31.364Z,100462.56
2023-08-15T10:30:59.999Z,100448.72
2023-08-15T10:33:33.006Z,100456.47
2023-08-15T10:36:09.649Z,100461.22
2023-08-15T10:38:42.580Z,100500.13
2023-08-15T10:41:15.698Z,100496.28
2023-08-15T10:43:49.532Z,100507.44
2023-08-15T10:46:20.150Z,100520.81
2023-08-15T10:49:03.430Z,100511.94
2023-08-15T10:51:34.027Z,100509.84
2023-08-15T10:54:04.409Z,100491.44
2023-08-15T10:56:36.520Z,100500.13
2023-08-15T10:59:08.862Z,100490.78
2023-08-15T11:01:39.453Z,100481.81
2023-08-15T11:04:11.733Z,100492.28
2023-08-15T11:06:43.806Z,100497.97
2023-08-15T11:09:13.054Z,100500.31
2023-08-15T11:11:41.747Z,100504.78
2023-08-15T11:14:18.174Z,100474.56
2023-08-15T11:16:47.156Z,100434.84
2023-08-15T11:19:18.962Z,100439.16
2023-08-15T11:21:48.856Z,100396.41
2023-08-15T11:24:17.376Z,100398.69
2023-08-15T11:26:46.159Z,100399.94
2023-08-15T11:29:14.838Z,100411.81
2023-08-15T11:31:43.753Z,100418.88
2023-08-15T11:34:13.567Z,100446.72
2023-08-15T11:36:43.704Z,100450.75
2023-08-15T11:39:15.654Z,100473.00
2023-08-15T11:41:46.304Z,100464.25
2023-08-15T11:44:14.669Z,100483.00
2023-08-15T11:49:19.150Z,100492.59
2023-08-15T11:51:49.572Z,100487.13
2023-08-15T11:54:18.077Z,100483.19
2023-08-15T11:56:50.759Z,100517.34
2023-08-15T11:59:19.765Z,100516.09
2023-08-15T12:01:49.297Z,100521.66
2023-08-15T12:04:18.889Z,100518.28
2023-08-15T12:06:48.860Z,100521.38
2023-08-15T12:09:17.546Z,100502.81
2023-08-15T12:11:46.336Z,100519.75
2023-08-15T12:14:21.204Z,100499.69
2023-08-15T12:16:49.888Z,100486.41
2023-08-15T12:19:22.993Z,100476.78
2023-08-15T12:21:54.925Z,100462.25
2023-08-15T12:24:24.296Z,100436.66
2023-08-15T12:26:52.701Z,100428.59
2023-08-15T12:30:11.054Z,100401.63
2023-08-15T12:32:09.803Z,100398.34
2023-08-15T12:34:38.361Z,100373.16
2023-08-15T12:37:08.280Z,100390.56
2023-08-15T12:39:36.861Z,100366.50
2023-08-15T12:42:05.545Z,100382.06
2023-08-15T12:44:34.187Z,100368.47
2023-08-15T12:47:02.656Z,100353.75
2023-08-15T12:49:31.008Z,100343.16
2023-08-15T12:51:59.482Z,100349.63
2023-08-15T12:54:29.313Z,100345.19
2023-08-15T12:56:57.795Z,100342.66
2023-08-15T12:59:26.230Z,100349.03
2023-08-15T13:01:54.609Z,100342.47
2023-08-15T13:04:23.126Z,100363.69
2023-08-15T13:06:51.515Z,100389.00
2023-08-15T13:09:20.337Z,100389.53
2023-08-15T13:11:50.283Z,100426.06
2023-08-15T13:14:20.623Z,100434.78
2023-08-15T13:16:51.221Z,100429.06
2023-08-15T13:19:19.705Z,100415.88
2023-08-15T13:21:48.044Z,100434.13
2023-08-15T13:24:16.525Z,100439.41
2023-08-15T13:26:44.911Z,100443.31
2023-08-15T13:29:14.809Z,100453.53
2023-08-15T13:31:43.317Z,100466.22
2023-08-15T13:34:12.023Z,100469.97
2023-08-15T13:36:42.324Z,100497.56
2023-08-15T13:39:11.782Z,100487.25
2023-08-15T13:41:40.118Z,100477.50
2023-08-15T13:44:08.774Z,100463.44
2023-08-15T13:46:39.407Z,100462.25
2023-08-15T13:49:07.756Z,100465.00
2023-08-15T13:51:36.260Z,100476.50
2023-08-15T13:54:06.167Z,100471.78
2023-08-15T13:56:34.490Z,100480.78
2023-08-15T13:59:02.984Z,100471.84
2023-08-15T14:01:33.545Z,100471.78
2023-08-15T14:04:03.540Z,100469.66
2023-08-15T14:06:31.905Z,100479.25
2023-08-15T14:09:00.741Z,100465.00
2023-08-15T14:11:29.426Z,100469.03
2023-08-15T14:13:57.750Z,100470.50
2023-08-15T14:16:26.273Z,100449.88
2023-08-15T14:18:54.788Z,100443.72
2023-08-15T14:21:25.517Z,100447.63
2023-08-15T14:23:54.182Z,100451.13
2023-08-15T14:26:22.568Z,100457.47
2023-08-15T14:28:51.012Z,100444.19
2023-08-15T14:31:19.528Z,100460.84
2023-08-15T14:33:47.914Z,100453.00
2023-08-15T14:36:16.433Z,100429.97
2023-08-15T14:38:46.327Z,100433.25
2023-08-15T14:41:14.803Z,100443.84
2023-08-15T14:43:43.222Z,100402.03
2023-08-15T14:46:11.667Z,100371.13
2023-08-15T14:48:40.077Z,100362.44
2023-08-15T14:51:08.608Z,100381.28
2023-08-15T14:53:37.105Z,100389.88
2023-08-15T14:56:08.107Z,100390.03
2023-08-15T14:58:36.792Z,100417.34
2023-08-15T15:01:09.914Z,100440.19
2023-08-15T15:03:39.942Z,100448.50
2023-08-15T15:06:08.699Z,100455.06
2023-08-15T15:08:37.338Z,100451.97
2023-08-15T15:11:07.663Z,100450.59
2023-08-15T15:13:36.038Z,100451.31
2023-08-15T15:16:04.686Z,100473.69
2023-08-15T15:18:33.326Z,100464.03
2023-08-15T15:21:02.401Z,100462.53
2023-08-15T15:23:31.631Z,100456.94
2023-08-15T15:26:00.184Z,100446.41
2023-08-15T15:28:30.072Z,100435.09
2023-08-15T15:30:59.419Z,100407.34
2023-08-15T15:33:30.595Z,100353.41
2023-08-15T15:35:59.124Z,100353.31
2023-08-15T15:38:27.631Z,100362.75
2023-08-15T15:40:56.123Z,100375.59
2023-08-15T15:43:24.744Z,100418.41
2023-08-15T15:45:55.757Z,100431.09
2023-08-15T15:48:24.409Z,100458.66
2023-08-15T15:50:53.630Z,100426.09
2023-08-15T15:53:22.271Z,100423.09
2023-08-15T15:55:51.045Z,100441.53
2023-08-15T15:58:19.697Z,100436.19
2023-08-15T16:00:49.315Z,100415.97
2023-08-15T16:03:19.491Z,100402.22
2023-08-15T16:05:47.971Z,100424.72
2023-08-15T16:08:16.621Z,100416.19
2023-08-15T16:10:45.228Z,100412.63
2023-08-15T16:13:14.338Z,100440.50
2023-08-15T16:15:43.343Z,100424.94
2023-08-15T16:18:11.781Z,100434.78
2023-08-15T16:20:42.713Z,100444.63
2023-08-15T16:23:11.136Z,100453.75
2023-08-15T16:25:39.547Z,100462.84
2023-08-15T16:28:08.413Z,100462.84
2023-08-15T16:30:36.878Z,100459.63
2023-08-15T16:33:05.719Z,100451.47
2023-08-15T16:35:34.615Z,100454.25
2023-08-15T16:38:04.660Z,100446.50
2023-08-15T16:40:33.144Z,100460.59
2023-08-15T16:43:16.176Z,100463.31
2023-08-15T16:45:45.704Z,100440.97
2023-08-15T16:48:16.058Z,100437.22
2023-08-15T16:50:44.622Z,100437.25
2023-08-15T16:53:14.505Z,100440.88
2023-08-15T16:55:44.185Z,100428.72
2023-08-15T16:58:15.043Z,100423.28
2023-08-15T17:00:43.516Z,100417.09
2023-08-15T17:03:12.155Z,100430.41
2023-08-15T17:05:40.756Z,100432.75
2023-08-15T17:08:09.686Z,100435.50
2023-08-15T17:10:40.008Z,100441.00
2023-08-15T17:13:08.423Z,100439.09
2023-08-15T17:15:36.955Z,100418.75
2023-08-15T17:18:05.852Z,100418.81
2023-08-15T17:20:34.825Z,100437.53
2023-08-15T17:23:03.257Z,100442.28
2023-08-15T17:25:31.730Z,100446.97
2023-08-15T17:28:01.624Z,100439.97
2023-08-15T17:30:30.236Z,100439.97
2023-08-15T17:32:58.780Z,100451.00
2023-08-15T17:35:27.497Z,100458.91
2023-08-15T17:37:55.882Z,100462.44
2023-08-15T17:40:24.399Z,100462.03
2023-08-15T17:42:52.911Z,100466.00
2023-08-15T17:45:22.773Z,100469.56
2023-08-15T17:47:51.457Z,100477.44
2023-08-15T17:50:20.036Z,100484.09
2023-08-15T17:52:49.128Z,100488.38
2023-08-15T17:55:18.009Z,100497.03
2023-08-15T17:57:48.296Z,100502.94
2023-08-15T18:00:18.068Z,100513.84
2023-08-15T18:02:49.018Z,100496.19
2023-08-15T18:05:17.544Z,100498.94
2023-08-15T18:07:45.963Z,100512.66
2023-08-15T18:10:14.326Z,100512.34
2023-08-15T18:12:42.736Z,100499.53
2023-08-15T18:15:13.442Z,100498.78
2023-08-15T18:17:53.760Z,100516.84
2023-08-15T18:23:12.355Z,100512.97
2023-08-15T18:25:41.518Z,100505.94
2023-08-15T18:28:11.313Z,100505.56
2023-08-15T18:30:40.646Z,100501.66
2023-08-15T18:33:12.776Z,100513.78
2023-08-15T18:35:43.288Z,100499.34
2023-08-15T18:38:12.289Z,100498.97
2023-08-15T18:40:41.761Z,100504.44
2023-08-15T18:43:10.696Z,100515.00
2023-08-15T18:45:45.285Z,100516.25
2023-08-15T18:48:18.952Z,100518.22
2023-08-15T18:50:47.875Z,100511.56
2023-08-15T18:53:16.371Z,100515.06
2023-08-15T18:55:44.868Z,100519.81
2023-08-15T18:58:13.774Z,100517.47
2023-08-15T19:00:44.209Z,100527.63
2023-08-15T19:03:13.958Z,100518.66
2023-08-15T19:05:47.704Z,100528.47
2023-08-15T19:08:16.250Z,100518.72
2023-08-15T19:10:45.208Z,100531.63
2023-08-15T19:13:14.351Z,100537.09
2023-08-15T19:15:43.239Z,100533.97
2023-08-15T19:18:12.584Z,100529.69
2023-08-15T19:20:42.717Z,100513.25
2023-08-15T19:23:12.876Z,100512.09
2023-08-15T19:25:41.306Z,100504.66
2023-08-15T19:28:09.819Z,100519.91
2023-08-15T19:30:40.995Z,100521.47
2023-08-15T19:33:09.398Z,100534.41
2023-08-15T19:35:40.001Z,100519.13
2023-08-15T19:38:08.709Z,100523.88
2023-08-15T19:40:39.191Z,100522.28
2023-08-15T19:43:07.712Z,100530.91
2023-08-15T19:45:36.348Z,100521.91
2023-08-15T19:48:05.386Z,100514.09
2023-08-15T19:50:33.808Z,100512.56
2023-08-15T19:53:02.393Z,100516.06
2023-08-15T19:55:33.796Z,100524.66
2023-08-15T19:58:05.752Z,100515.28
2023-08-15T20:00:34.174Z,100506.28
2023-08-15T20:03:02.773Z,100504.75
2023-08-15T20:05:31.236Z,100516.09
2023-08-15T20:08:00.083Z,100506.31
2023-08-15T20:10:29.588Z,100517.25
2023-08-15T20:12:58.342Z,100519.59
2023-08-15T20:15:28.418Z,100516.88
2023-08-15T20:17:56.953Z,100518.81
2023-08-15T20:20:25.642Z,100514.91
2023-08-15T20:22:54.196Z,100528.59
2023-08-15T20:25:22.615Z,100517.63
2023-08-15T20:27:51.229Z,100523.53
2023-08-15T20:30:20.056Z,100525.88
2023-08-15T20:32:49.962Z,100521.56
2023-08-15T20:35:18.509Z,100523.91
2023-08-15T20:37:47.628Z,100513.72
2023-08-15T20:40:16.905Z,100514.13
2023-08-15T20:42:45.355Z,100505.91
2023-08-15T20:45:15.067Z,100505.94
2023-08-15T20:47:43.585Z,100507.47
2023-08-15T20:50:13.688Z,100499.69
2023-08-15T20:52:42.021Z,100520.00
2023-08-15T20:55:14.655Z,100497.34
2023-08-15T20:57:43.195Z,100500.44
2023-08-15T21:00:12.728Z,100500.44
2023-08-15T21:02:41.333Z,100515.66
2023-08-15T21:05:13.681Z,100520.75
2023-08-15T21:07:43.656Z,100511.34
2023-08-15T21:10:12.354Z,100518.03
2023-08-15T21:12:40.637Z,100507.47
2023-08-15T21:15:09.943Z,100505.13
2023-08-15T21:17:38.720Z,100495.34
2023-08-15T21:20:09.691Z,100489.50
2023-08-15T21:22:38.124Z,100495.75
2023-08-15T21:25:08.854Z,100487.94
2023-08-15T21:27:37.200Z,100502.78
2023-08-15T21:30:06.225Z,100488.72
2023-08-15T21:32:34.650Z,100487.94
2023-08-15T21:35:02.948Z,100492.25
2023-08-15T21:37:31.427Z,100484.81
2023-08-15T21:39:59.736Z,100484.41
2023-08-15T21:42:32.102Z,100489.09
2023-08-15T21:45:02.141Z,100494.56
2023-08-15T21:47:30.531Z,100492.63
2023-08-15T21:49:58.805Z,100484.78
2023-08-15T21:52:27.067Z,100487.91
2023-08-15T21:54:55.445Z,100487.13
2023-08-15T21:57:24.141Z,100491.06
2023-08-15T21:59:54.101Z,100484.41
2023-08-15T22:02:22.475Z,100481.69
2023-08-15T22:04:50.730Z,100472.69
2023-08-15T22:07:18.977Z,100471.50
2023-08-15T22:09:47.210Z,100467.19
2023-08-15T22:12:15.626Z,100452.34
2023-08-15T22:14:43.970Z,100448.81
2023-08-15T22:17:13.889Z,100439.84
2023-08-15T22:19:42.320Z,100441.81
2023-08-15T22:22:10.659Z,100432.41
2023-08-15T22:24:38.936Z,100415.63
2023-08-15T22:27:07.860Z,100406.19
2023-08-15T22:29:36.124Z,100389.38
2023-08-15T22:32:04.647Z,100389.34
2023-08-15T22:34:34.391Z,100381.06
2023-08-15T22:37:02.648Z,100371.66
2023-08-15T22:39:30.963Z,100374.31
2023-08-15T22:41:59.482Z,100368.00
2023-08-15T22:44:28.152Z,100367.53
2023-08-15T22:46:56.437Z,100364.75
2023-08-15T22:49:24.706Z,100347.09
2023-08-15T22:51:54.453Z,100348.31
2023-08-15T22:54:22.687Z,100323.19
2023-08-15T22:56:51.010Z,100311.47
2023-08-15T22:59:19.258Z,100300.50
2023-08-15T23:01:47.720Z,100302.03
2023-08-15T23:04:16.375Z,100290.31
2023-08-15T23:06:44.734Z,100297.34
2023-08-15T23:09:14.537Z,100300.50
2023-08-15T23:11:42.853Z,100274.28
2023-08-15T23:14:11.280Z,100264.47
2023-08-15T23:16:39.747Z,100235.47
2023-08-15T23:19:08.231Z,100235.50
2023-08-15T23:21:36.565Z,100221.44
2023-08-15T23:24:06.335Z,100204.59
2023-08-15T23:26:36.586Z,100221.34
2023-08-15T23:29:06.615Z,100216.66
2023-08-15T23:31:36.378Z,100231.44
2023-08-15T23:34:05.666Z,100219.69
2023-08-15T23:36:34.806Z,100216.91
2023-08-15T23:39:05.585Z,100223.09
2023-08-15T23:41:35.437Z,100199.19
2023-08-15T23:44:03.835Z,100180.75
2023-08-15T23:46:32.143Z,100179.19
2023-08-15T23:49:00.864Z,100167.47
2023-08-15T23:51:31.077Z,100180.34
2023-08-15T23:53:59.542Z,100161.88
2023-08-15T23:56:27.976Z,100163.38
2023-08-15T23:58:57.810Z,100178.59
